TimeCDT,TemperatureF,Dew PointF,Humidity,Sea Level PressureIn,VisibilityMPH,Wind Direction,Wind SpeedMPH,Gust SpeedMPH,PrecipitationIn,Events,Conditions,WindDirDegrees,DateUTC
12:53 AM,78.1,71.1,79,29.93,10.0,East,3.5,-,N/A,,Mostly Cloudy,100,2013-06-15 05:53:00
1:53 AM,79.0,71.1,77,29.94,10.0,NE,4.6,-,N/A,,Scattered Clouds,50,2013-06-15 06:53:00
2:53 AM,78.1,71.1,79,29.93,10.0,SSE,3.5,-,N/A,,Clear,160,2013-06-15 07:53:00
3:53 AM,78.1,72.0,81,29.92,10.0,South,3.5,-,N/A,,Clear,180,2013-06-15 08:53:00
4:53 AM,77.0,72.0,84,29.92,10.0,South,5.8,-,N/A,,Clear,180,2013-06-15 09:53:00
5:53 AM,75.9,72.0,87,29.94,10.0,SSW,4.6,-,N/A,,Clear,200,2013-06-15 10:53:00
6:53 AM,75.9,72.0,87,29.96,7.0,SSW,3.5,-,0.00,,Partly Cloudy,200,2013-06-15 11:53:00
7:53 AM,75.9,73.0,91,29.97,6.0,SSW,4.6,-,0.00,,Clear,200,2013-06-15 12:53:00
8:53 AM,77.0,73.0,88,29.99,8.0,SSW,5.8,-,N/A,,Clear,200,2013-06-15 13:53:00
9:53 AM,79.0,72.0,79,30.00,7.0,South,5.8,-,N/A,,Scattered Clouds,190,2013-06-15 14:53:00
10:09 AM,79.0,72.0,79,30.05,7.0,SSE,3.5,-,N/A,,Mostly Cloudy,160,2013-06-15 15:09:00
10:14 AM,79.0,72.0,79,30.05,7.0,South,5.8,-,N/A,,Scattered Clouds,170,2013-06-15 15:14:00
10:19 AM,79.0,71.1,77,30.05,7.0,SSE,4.6,-,N/A,,Mostly Cloudy,160,2013-06-15 15:19:00
10:27 AM,79.0,72.0,79,30.05,8.0,South,5.8,-,N/A,,Mostly Cloudy,170,2013-06-15 15:27:00
10:53 AM,80.1,72.0,76,29.99,8.0,South,8.1,-,N/A,,Partly Cloudy,170,2013-06-15 15:53:00
11:53 AM,82.0,70.0,67,30.00,9.0,South,9.2,-,N/A,,Clear,170,2013-06-15 16:53:00
12:53 PM,82.9,69.1,63,29.99,9.0,SSW,6.9,-,N/A,,Partly Cloudy,200,2013-06-15 17:53:00
1:53 PM,84.0,69.1,61,29.97,9.0,SSE,6.9,-,N/A,,Partly Cloudy,150,2013-06-15 18:53:00
2:53 PM,82.9,69.1,63,29.97,10.0,South,6.9,-,N/A,,Partly Cloudy,190,2013-06-15 19:53:00
3:53 PM,84.9,70.0,61,29.95,10.0,South,5.8,-,N/A,,Partly Cloudy,180,2013-06-15 20:53:00
4:53 PM,87.1,70.0,57,29.94,10.0,SE,5.8,-,N/A,,Partly Cloudy,130,2013-06-15 21:53:00
5:53 PM,88.0,68.0,51,29.92,10.0,SSE,6.9,-,N/A,,Clear,150,2013-06-15 22:53:00
6:53 PM,87.1,66.9,51,29.90,10.0,South,8.1,-,N/A,,Clear,170,2013-06-15 23:53:00
7:53 PM,86.0,66.9,53,29.90,10.0,SSE,4.6,-,N/A,,Clear,160,2013-06-16 00:53:00
8:53 PM,82.9,66.9,58,29.91,10.0,SSE,3.5,-,N/A,,Clear,150,2013-06-16 01:53:00
9:53 PM,80.1,66.9,64,29.92,10.0,Calm,Calm,-,N/A,,Clear,0,2013-06-16 02:53:00
10:53 PM,80.1,68.0,67,29.94,10.0,Calm,Calm,-,N/A,,Clear,0,2013-06-16 03:53:00
11:53 PM,78.1,68.0,71,29.95,10.0,Calm,Calm,-,N/A,,Clear,0,2013-06-16 04:53:00